sensor_id;sensor_type;location;lat;lon;timestamp;P1;durP1;ratioP1;P2;durP2;ratioP2
12493;SDS011;8260;51.422;6.786;2023-04-25T00:01:05;14.57;;;5.15;;
12493;SDS011;8260;51.422;6.786;2023-04-25T00:03:35;10.93;;;4.70;;
12493;SDS011;8260;51.422;6.786;2023-04-25T00:06:05;11.73;;;4.50;;
12493;SDS011;8260;51.422;6.786;2023-04-25T00:08:34;10.10;;;4.80;;
12493;SDS011;8260;51.422;6.786;2023-04-25T00:11:05;11.13;;;4.90;;
12493;SDS011;8260;51.422;6.786;2023-04-25T00:13:33;10.35;;;4.63;;
12493;SDS011;8260;51.422;6.786;2023-04-25T00:16:02;14.13;;;4.63;;
12493;SDS011;8260;51.422;6.786;2023-04-25T00:18:31;10.63;;;4.80;;
12493;SDS011;8260;51.422;6.786;2023-04-25T00:20:59;11.68;;;4.78;;
12493;SDS011;8260;51.422;6.786;2023-04-25T00:23:28;12.10;;;6.00;;
12493;SDS011;8260;51.422;6.786;2023-04-25T00:25:57;8.20;;;4.38;;
12493;SDS011;8260;51.422;6.786;2023-04-25T00:28:27;10.90;;;5.22;;
12493;SDS011;8260;51.422;6.786;2023-04-25T00:30:55;10.98;;;5.28;;
12493;SDS011;8260;51.422;6.786;2023-04-25T00:33:24;10.93;;;5.07;;
12493;SDS011;8260;51.422;6.786;2023-04-25T00:35:52;14.43;;;5.78;;
12493;SDS011;8260;51.422;6.786;2023-04-25T00:38:21;9.98;;;5.50;;
12493;SDS011;8260;51.422;6.786;2023-04-25T00:40:49;13.90;;;5.95;;
12493;SDS011;8260;51.422;6.786;2023-04-25T00:43:19;14.18;;;5.82;;
12493;SDS011;8260;51.422;6.786;2023-04-25T00:45:49;9.98;;;5.10;;
12493;SDS011;8260;51.422;6.786;2023-04-25T00:48:19;15.18;;;5.28;;
12493;SDS011;8260;51.422;6.786;2023-04-25T00:50:51;13.48;;;5.13;;
12493;SDS011;8260;51.422;6.786;2023-04-25T00:53:20;17.10;;;5.78;;
12493;SDS011;8260;51.422;6.786;2023-04-25T00:55:49;13.63;;;6.05;;
12493;SDS011;8260;51.422;6.786;2023-04-25T00:58:18;11.52;;;5.25;;
12493;SDS011;8260;51.422;6.786;2023-04-25T01:00:47;11.25;;;4.88;;
12493;SDS011;8260;51.422;6.786;2023-04-25T01:03:18;12.82;;;5.43;;
12493;SDS011;8260;51.422;6.786;2023-04-25T01:05:47;12.82;;;5.25;;
12493;SDS011;8260;51.422;6.786;2023-04-25T01:08:15;11.70;;;5.43;;
12493;SDS011;8260;51.422;6.786;2023-04-25T01:10:44;11.90;;;5.30;;
12493;SDS011;8260;51.422;6.786;2023-04-25T01:13:12;13.20;;;5.35;;
12493;SDS011;8260;51.422;6.786;2023-04-25T01:15:41;11.38;;;5.22;;
12493;SDS011;8260;51.422;6.786;2023-04-25T01:18:10;12.45;;;5.82;;
12493;SDS011;8260;51.422;6.786;2023-04-25T01:20:40;9.02;;;5.18;;
12493;SDS011;8260;51.422;6.786;2023-04-25T01:23:11;9.52;;;4.80;;
12493;SDS011;8260;51.422;6.786;2023-04-25T01:25:40;11.95;;;5.85;;
12493;SDS011;8260;51.422;6.786;2023-04-25T01:28:08;11.07;;;5.47;;
12493;SDS011;8260;51.422;6.786;2023-04-25T01:30:37;12.80;;;5.90;;
12493;SDS011;8260;51.422;6.786;2023-04-25T01:33:07;10.75;;;6.13;;
12493;SDS011;8260;51.422;6.786;2023-04-25T01:35:36;11.25;;;5.68;;
12493;SDS011;8260;51.422;6.786;2023-04-25T01:38:04;13.40;;;5.88;;
12493;SDS011;8260;51.422;6.786;2023-04-25T01:40:34;9.15;;;5.50;;
12493;SDS011;8260;51.422;6.786;2023-04-25T01:43:06;12.15;;;6.38;;
12493;SDS011;8260;51.422;6.786;2023-04-25T01:45:37;18.95;;;6.30;;
12493;SDS011;8260;51.422;6.786;2023-04-25T01:48:07;15.35;;;6.13;;
12493;SDS011;8260;51.422;6.786;2023-04-25T01:50:36;12.80;;;5.72;;
12493;SDS011;8260;51.422;6.786;2023-04-25T01:53:05;9.68;;;5.78;;
12493;SDS011;8260;51.422;6.786;2023-04-25T01:55:35;17.27;;;5.53;;
12493;SDS011;8260;51.422;6.786;2023-04-25T01:58:03;14.07;;;5.90;;
12493;SDS011;8260;51.422;6.786;2023-04-25T02:00:35;11.75;;;5.93;;
12493;SDS011;8260;51.422;6.786;2023-04-25T02:03:05;9.40;;;5.55;;
12493;SDS011;8260;51.422;6.786;2023-04-25T02:05:34;10.50;;;6.10;;
12493;SDS011;8260;51.422;6.786;2023-04-25T02:08:04;11.80;;;6.53;;
12493;SDS011;8260;51.422;6.786;2023-04-25T02:10:34;13.48;;;6.20;;
12493;SDS011;8260;51.422;6.786;2023-04-25T02:13:03;12.23;;;6.35;;
12493;SDS011;8260;51.422;6.786;2023-04-25T02:15:31;13.70;;;5.88;;
12493;SDS011;8260;51.422;6.786;2023-04-25T02:18:00;13.40;;;6.10;;
12493;SDS011;8260;51.422;6.786;2023-04-25T02:20:29;13.23;;;6.00;;
12493;SDS011;8260;51.422;6.786;2023-04-25T02:22:57;12.00;;;5.90;;
12493;SDS011;8260;51.422;6.786;2023-04-25T02:25:26;12.70;;;5.78;;
12493;SDS011;8260;51.422;6.786;2023-04-25T02:27:56;11.93;;;5.95;;
12493;SDS011;8260;51.422;6.786;2023-04-25T02:30:24;11.02;;;5.50;;
12493;SDS011;8260;51.422;6.786;2023-04-25T02:32:53;13.02;;;6.13;;
12493;SDS011;8260;51.422;6.786;2023-04-25T02:35:22;13.68;;;6.55;;
12493;SDS011;8260;51.422;6.786;2023-04-25T02:37:51;10.15;;;6.03;;
12493;SDS011;8260;51.422;6.786;2023-04-25T02:40:19;12.85;;;6.15;;
12493;SDS011;8260;51.422;6.786;2023-04-25T02:42:48;10.82;;;5.40;;
12493;SDS011;8260;51.422;6.786;2023-04-25T02:45:18;11.43;;;5.07;;
12493;SDS011;8260;51.422;6.786;2023-04-25T02:47:46;13.27;;;5.88;;
12493;SDS011;8260;51.422;6.786;2023-04-25T02:50:15;12.05;;;5.63;;
12493;SDS011;8260;51.422;6.786;2023-04-25T02:52:44;10.07;;;6.20;;
12493;SDS011;8260;51.422;6.786;2023-04-25T02:55:13;9.40;;;5.65;;
12493;SDS011;8260;51.422;6.786;2023-04-25T02:57:41;13.18;;;5.60;;
12493;SDS011;8260;51.422;6.786;2023-04-25T03:00:10;12.50;;;5.47;;
12493;SDS011;8260;51.422;6.786;2023-04-25T03:02:42;10.23;;;5.28;;
12493;SDS011;8260;51.422;6.786;2023-04-25T03:05:10;15.05;;;5.50;;
12493;SDS011;8260;51.422;6.786;2023-04-25T03:07:39;16.27;;;5.80;;
12493;SDS011;8260;51.422;6.786;2023-04-25T03:10:07;12.70;;;5.30;;
12493;SDS011;8260;51.422;6.786;2023-04-25T03:12:36;10.88;;;5.43;;
12493;SDS011;8260;51.422;6.786;2023-04-25T03:15:05;9.75;;;5.43;;
12493;SDS011;8260;51.422;6.786;2023-04-25T03:17:33;12.85;;;5.75;;
12493;SDS011;8260;51.422;6.786;2023-04-25T03:20:04;15.68;;;6.32;;
12493;SDS011;8260;51.422;6.786;2023-04-25T03:22:34;17.45;;;6.72;;
12493;SDS011;8260;51.422;6.786;2023-04-25T03:25:03;11.32;;;6.03;;
12493;SDS011;8260;51.422;6.786;2023-04-25T03:27:31;11.82;;;5.50;;
12493;SDS011;8260;51.422;6.786;2023-04-25T03:30:00;10.50;;;6.25;;
12493;SDS011;8260;51.422;6.786;2023-04-25T03:32:29;13.57;;;5.32;;
12493;SDS011;8260;51.422;6.786;2023-04-25T03:34:57;15.48;;;5.65;;
12493;SDS011;8260;51.422;6.786;2023-04-25T03:37:27;14.23;;;6.30;;
12493;SDS011;8260;51.422;6.786;2023-04-25T03:39:56;14.77;;;5.93;;
12493;SDS011;8260;51.422;6.786;2023-04-25T03:42:24;19.80;;;6.57;;
12493;SDS011;8260;51.422;6.786;2023-04-25T03:44:53;12.40;;;5.55;;
12493;SDS011;8260;51.422;6.786;2023-04-25T03:47:21;15.13;;;5.95;;
12493;SDS011;8260;51.422;6.786;2023-04-25T03:49:50;12.05;;;5.68;;
12493;SDS011;8260;51.422;6.786;2023-04-25T03:52:18;12.52;;;5.32;;
12493;SDS011;8260;51.422;6.786;2023-04-25T03:54:48;18.02;;;6.40;;
12493;SDS011;8260;51.422;6.786;2023-04-25T03:57:16;17.75;;;6.13;;
12493;SDS011;8260;51.422;6.786;2023-04-25T03:59:45;14.10;;;6.03;;
12493;SDS011;8260;51.422;6.786;2023-04-25T04:02:13;18.90;;;7.70;;
12493;SDS011;8260;51.422;6.786;2023-04-25T04:04:42;19.98;;;7.50;;
12493;SDS011;8260;51.422;6.786;2023-04-25T04:07:12;14.05;;;6.07;;
12493;SDS011;8260;51.422;6.786;2023-04-25T04:09:40;17.42;;;6.28;;
12493;SDS011;8260;51.422;6.786;2023-04-25T04:12:10;17.73;;;7.53;;
12493;SDS011;8260;51.422;6.786;2023-04-25T04:14:39;17.67;;;7.07;;
12493;SDS011;8260;51.422;6.786;2023-04-25T04:17:08;16.70;;;7.07;;
12493;SDS011;8260;51.422;6.786;2023-04-25T04:19:36;15.10;;;6.57;;
12493;SDS011;8260;51.422;6.786;2023-04-25T04:22:05;16.52;;;6.10;;
12493;SDS011;8260;51.422;6.786;2023-04-25T04:24:33;12.35;;;5.80;;
12493;SDS011;8260;51.422;6.786;2023-04-25T04:27:02;14.18;;;6.72;;
12493;SDS011;8260;51.422;6.786;2023-04-25T04:29:32;10.80;;;6.43;;
12493;SDS011;8260;51.422;6.786;2023-04-25T04:32:01;17.02;;;6.68;;
12493;SDS011;8260;51.422;6.786;2023-04-25T04:34:29;17.73;;;6.30;;
12493;SDS011;8260;51.422;6.786;2023-04-25T04:36:58;13.05;;;6.13;;
12493;SDS011;8260;51.422;6.786;2023-04-25T04:39:26;18.80;;;7.47;;
12493;SDS011;8260;51.422;6.786;2023-04-25T04:41:55;14.55;;;5.60;;
12493;SDS011;8260;51.422;6.786;2023-04-25T04:44:24;20.77;;;6.65;;
12493;SDS011;8260;51.422;6.786;2023-04-25T04:46:54;18.90;;;5.75;;
12493;SDS011;8260;51.422;6.786;2023-04-25T04:49:23;14.93;;;6.15;;
12493;SDS011;8260;51.422;6.786;2023-04-25T04:51:52;14.80;;;7.25;;
12493;SDS011;8260;51.422;6.786;2023-04-25T04:54:24;20.45;;;7.40;;
12493;SDS011;8260;51.422;6.786;2023-04-25T04:56:53;15.80;;;7.10;;
12493;SDS011;8260;51.422;6.786;2023-04-25T04:59:22;13.63;;;5.93;;
12493;SDS011;8260;51.422;6.786;2023-04-25T05:01:52;21.42;;;7.38;;
12493;SDS011;8260;51.422;6.786;2023-04-25T05:04:22;18.13;;;7.60;;
12493;SDS011;8260;51.422;6.786;2023-04-25T05:06:51;18.25;;;6.18;;
12493;SDS011;8260;51.422;6.786;2023-04-25T05:09:19;15.60;;;6.40;;
12493;SDS011;8260;51.422;6.786;2023-04-25T05:11:51;16.05;;;7.22;;
12493;SDS011;8260;51.422;6.786;2023-04-25T05:14:20;14.20;;;6.45;;
12493;SDS011;8260;51.422;6.786;2023-04-25T05:16:49;18.73;;;6.60;;
12493;SDS011;8260;51.422;6.786;2023-04-25T05:19:18;17.27;;;6.88;;
12493;SDS011;8260;51.422;6.786;2023-04-25T05:21:48;15.80;;;6.45;;
12493;SDS011;8260;51.422;6.786;2023-04-25T05:24:16;14.43;;;6.25;;
12493;SDS011;8260;51.422;6.786;2023-04-25T05:26:45;22.65;;;6.63;;
12493;SDS011;8260;51.422;6.786;2023-04-25T05:29:13;14.38;;;6.25;;
12493;SDS011;8260;51.422;6.786;2023-04-25T05:31:42;16.83;;;6.47;;
12493;SDS011;8260;51.422;6.786;2023-04-25T05:34:10;13.65;;;6.85;;
12493;SDS011;8260;51.422;6.786;2023-04-25T05:36:39;14.38;;;6.93;;
12493;SDS011;8260;51.422;6.786;2023-04-25T05:39:08;15.70;;;6.63;;
12493;SDS011;8260;51.422;6.786;2023-04-25T05:41:37;13.60;;;6.68;;
12493;SDS011;8260;51.422;6.786;2023-04-25T05:44:06;18.20;;;6.25;;
12493;SDS011;8260;51.422;6.786;2023-04-25T05:46:34;16.08;;;6.90;;
12493;SDS011;8260;51.422;6.786;2023-04-25T05:49:03;14.95;;;6.80;;
12493;SDS011;8260;51.422;6.786;2023-04-25T05:51:31;13.35;;;6.60;;
12493;SDS011;8260;51.422;6.786;2023-04-25T05:54:00;13.82;;;6.47;;
12493;SDS011;8260;51.422;6.786;2023-04-25T05:56:29;13.60;;;6.35;;
12493;SDS011;8260;51.422;6.786;2023-04-25T05:58:58;17.88;;;6.85;;
12493;SDS011;8260;51.422;6.786;2023-04-25T06:01:26;16.05;;;6.88;;
12493;SDS011;8260;51.422;6.786;2023-04-25T06:03:55;17.50;;;6.35;;
12493;SDS011;8260;51.422;6.786;2023-04-25T06:06:24;13.90;;;6.60;;
12493;SDS011;8260;51.422;6.786;2023-04-25T06:08:59;18.73;;;6.78;;
12493;SDS011;8260;51.422;6.786;2023-04-25T06:11:27;16.85;;;6.47;;
12493;SDS011;8260;51.422;6.786;2023-04-25T06:13:57;11.95;;;6.10;;
12493;SDS011;8260;51.422;6.786;2023-04-25T06:16:26;17.45;;;6.38;;
12493;SDS011;8260;51.422;6.786;2023-04-25T06:18:54;18.13;;;5.75;;
12493;SDS011;8260;51.422;6.786;2023-04-25T06:21:23;12.23;;;5.45;;
12493;SDS011;8260;51.422;6.786;2023-04-25T06:23:51;10.95;;;5.28;;
12493;SDS011;8260;51.422;6.786;2023-04-25T06:26:20;12.35;;;5.22;;
12493;SDS011;8260;51.422;6.786;2023-04-25T06:28:48;13.27;;;5.68;;
12493;SDS011;8260;51.422;6.786;2023-04-25T06:31:18;12.95;;;4.97;;
12493;SDS011;8260;51.422;6.786;2023-04-25T06:33:47;15.30;;;5.80;;
12493;SDS011;8260;51.422;6.786;2023-04-25T06:36:16;14.27;;;5.07;;
12493;SDS011;8260;51.422;6.786;2023-04-25T06:38:44;10.32;;;5.00;;
12493;SDS011;8260;51.422;6.786;2023-04-25T06:41:13;16.95;;;4.70;;
12493;SDS011;8260;51.422;6.786;2023-04-25T06:43:41;8.75;;;4.05;;
12493;SDS011;8260;51.422;6.786;2023-04-25T06:46:10;16.58;;;5.28;;
12493;SDS011;8260;51.422;6.786;2023-04-25T06:48:40;11.68;;;4.82;;
12493;SDS011;8260;51.422;6.786;2023-04-25T06:51:08;12.90;;;4.78;;
12493;SDS011;8260;51.422;6.786;2023-04-25T06:53:37;16.75;;;4.93;;
12493;SDS011;8260;51.422;6.786;2023-04-25T06:56:05;12.07;;;4.80;;
12493;SDS011;8260;51.422;6.786;2023-04-25T06:58:34;10.60;;;4.40;;
12493;SDS011;8260;51.422;6.786;2023-04-25T07:01:02;9.10;;;4.88;;
12493;SDS011;8260;51.422;6.786;2023-04-25T07:03:31;12.20;;;4.45;;
12493;SDS011;8260;51.422;6.786;2023-04-25T07:06:01;9.95;;;4.28;;
12493;SDS011;8260;51.422;6.786;2023-04-25T07:08:29;10.52;;;4.43;;
12493;SDS011;8260;51.422;6.786;2023-04-25T07:10:58;16.50;;;4.57;;
12493;SDS011;8260;51.422;6.786;2023-04-25T07:13:26;20.65;;;5.47;;
12493;SDS011;8260;51.422;6.786;2023-04-25T07:15:55;13.70;;;4.60;;
12493;SDS011;8260;51.422;6.786;2023-04-25T07:18:23;16.58;;;5.88;;
12493;SDS011;8260;51.422;6.786;2023-04-25T07:20:52;20.08;;;5.75;;
12493;SDS011;8260;51.422;6.786;2023-04-25T07:23:22;14.25;;;5.50;;
12493;SDS011;8260;51.422;6.786;2023-04-25T07:25:50;15.30;;;5.93;;
12493;SDS011;8260;51.422;6.786;2023-04-25T07:28:19;16.08;;;6.25;;
12493;SDS011;8260;51.422;6.786;2023-04-25T07:30:47;12.85;;;5.85;;
12493;SDS011;8260;51.422;6.786;2023-04-25T07:33:15;14.77;;;6.05;;
12493;SDS011;8260;51.422;6.786;2023-04-25T07:35:46;15.48;;;5.68;;
12493;SDS011;8260;51.422;6.786;2023-04-25T07:38:15;12.13;;;5.50;;
12493;SDS011;8260;51.422;6.786;2023-04-25T07:40:45;12.52;;;5.43;;
12493;SDS011;8260;51.422;6.786;2023-04-25T07:43:13;18.60;;;5.57;;
12493;SDS011;8260;51.422;6.786;2023-04-25T07:45:43;14.18;;;5.18;;
12493;SDS011;8260;51.422;6.786;2023-04-25T07:48:11;11.80;;;5.00;;
12493;SDS011;8260;51.422;6.786;2023-04-25T07:50:40;9.18;;;5.13;;
12493;SDS011;8260;51.422;6.786;2023-04-25T07:53:08;16.60;;;5.43;;
12493;SDS011;8260;51.422;6.786;2023-04-25T07:55:37;13.75;;;4.82;;
12493;SDS011;8260;51.422;6.786;2023-04-25T07:58:07;12.70;;;4.88;;
12493;SDS011;8260;51.422;6.786;2023-04-25T08:00:36;12.30;;;4.28;;
12493;SDS011;8260;51.422;6.786;2023-04-25T08:03:05;11.95;;;4.13;;
12493;SDS011;8260;51.422;6.786;2023-04-25T08:05:34;12.88;;;4.22;;
12493;SDS011;8260;51.422;6.786;2023-04-25T08:08:03;10.13;;;4.40;;
12493;SDS011;8260;51.422;6.786;2023-04-25T08:10:32;15.13;;;4.70;;
12493;SDS011;8260;51.422;6.786;2023-04-25T08:13:01;13.63;;;4.38;;
12493;SDS011;8260;51.422;6.786;2023-04-25T08:15:31;9.95;;;4.43;;
12493;SDS011;8260;51.422;6.786;2023-04-25T08:17:59;15.05;;;4.50;;
12493;SDS011;8260;51.422;6.786;2023-04-25T08:20:28;6.63;;;3.47;;
12493;SDS011;8260;51.422;6.786;2023-04-25T08:22:56;12.10;;;3.75;;
12493;SDS011;8260;51.422;6.786;2023-04-25T08:25:25;11.18;;;3.35;;
12493;SDS011;8260;51.422;6.786;2023-04-25T08:27:53;9.35;;;4.28;;
12493;SDS011;8260;51.422;6.786;2023-04-25T08:30:22;8.38;;;3.28;;
12493;SDS011;8260;51.422;6.786;2023-04-25T08:32:52;10.98;;;4.60;;
12493;SDS011;8260;51.422;6.786;2023-04-25T08:35:20;10.20;;;4.35;;
12493;SDS011;8260;51.422;6.786;2023-04-25T08:37:49;10.02;;;4.38;;
12493;SDS011;8260;51.422;6.786;2023-04-25T08:40:18;9.68;;;4.05;;
12493;SDS011;8260;51.422;6.786;2023-04-25T08:42:52;7.72;;;3.17;;
12493;SDS011;8260;51.422;6.786;2023-04-25T08:45:21;9.00;;;3.63;;
12493;SDS011;8260;51.422;6.786;2023-04-25T08:47:52;9.48;;;3.28;;
12493;SDS011;8260;51.422;6.786;2023-04-25T08:50:23;9.43;;;2.83;;
12493;SDS011;8260;51.422;6.786;2023-04-25T08:52:53;5.97;;;2.58;;
12493;SDS011;8260;51.422;6.786;2023-04-25T08:55:21;9.73;;;2.88;;
12493;SDS011;8260;51.422;6.786;2023-04-25T08:57:50;5.93;;;2.38;;
12493;SDS011;8260;51.422;6.786;2023-04-25T09:00:19;8.50;;;2.58;;
12493;SDS011;8260;51.422;6.786;2023-04-25T09:02:48;5.63;;;2.40;;
12493;SDS011;8260;51.422;6.786;2023-04-25T09:05:19;4.50;;;2.47;;
12493;SDS011;8260;51.422;6.786;2023-04-25T09:07:47;10.25;;;2.60;;
12493;SDS011;8260;51.422;6.786;2023-04-25T09:10:16;7.65;;;2.30;;
12493;SDS011;8260;51.422;6.786;2023-04-25T09:12:50;10.40;;;2.45;;
12493;SDS011;8260;51.422;6.786;2023-04-25T09:15:29;8.82;;;2.58;;
12493;SDS011;8260;51.422;6.786;2023-04-25T09:17:58;6.95;;;2.13;;
12493;SDS011;8260;51.422;6.786;2023-04-25T09:20:28;10.50;;;2.50;;
12493;SDS011;8260;51.422;6.786;2023-04-25T09:23:01;6.45;;;2.30;;
12493;SDS011;8260;51.422;6.786;2023-04-25T09:25:33;8.25;;;2.65;;
12493;SDS011;8260;51.422;6.786;2023-04-25T09:28:05;4.90;;;2.38;;
12493;SDS011;8260;51.422;6.786;2023-04-25T09:30:34;7.70;;;2.70;;
12493;SDS011;8260;51.422;6.786;2023-04-25T09:33:06;4.90;;;2.20;;
12493;SDS011;8260;51.422;6.786;2023-04-25T09:36:34;9.70;;;2.40;;
12493;SDS011;8260;51.422;6.786;2023-04-25T09:39:02;5.95;;;2.33;;
12493;SDS011;8260;51.422;6.786;2023-04-25T09:41:42;6.25;;;2.45;;
12493;SDS011;8260;51.422;6.786;2023-04-25T09:44:12;6.78;;;2.75;;
12493;SDS011;8260;51.422;6.786;2023-04-25T09:46:41;8.93;;;2.47;;
12493;SDS011;8260;51.422;6.786;2023-04-25T09:49:09;5.28;;;2.47;;
12493;SDS011;8260;51.422;6.786;2023-04-25T09:51:39;3.85;;;2.05;;
12493;SDS011;8260;51.422;6.786;2023-04-25T09:54:07;6.60;;;2.60;;
12493;SDS011;8260;51.422;6.786;2023-04-25T09:56:36;12.55;;;2.60;;
12493;SDS011;8260;51.422;6.786;2023-04-25T09:59:05;7.72;;;2.97;;
12493;SDS011;8260;51.422;6.786;2023-04-25T10:01:35;6.13;;;2.15;;
12493;SDS011;8260;51.422;6.786;2023-04-25T10:04:04;5.78;;;2.50;;
12493;SDS011;8260;51.422;6.786;2023-04-25T10:06:34;6.03;;;2.55;;
12493;SDS011;8260;51.422;6.786;2023-04-25T10:09:05;5.63;;;1.98;;
12493;SDS011;8260;51.422;6.786;2023-04-25T10:11:34;3.30;;;1.80;;
12493;SDS011;8260;51.422;6.786;2023-04-25T10:14:03;7.22;;;3.17;;
12493;SDS011;8260;51.422;6.786;2023-04-25T10:16:32;5.80;;;2.53;;
12493;SDS011;8260;51.422;6.786;2023-04-25T10:19:02;5.28;;;2.13;;
12493;SDS011;8260;51.422;6.786;2023-04-25T10:21:30;6.30;;;2.28;;
12493;SDS011;8260;51.422;6.786;2023-04-25T10:23:59;4.50;;;2.05;;
12493;SDS011;8260;51.422;6.786;2023-04-25T10:26:30;4.60;;;2.20;;
12493;SDS011;8260;51.422;6.786;2023-04-25T10:28:59;4.90;;;2.30;;
12493;SDS011;8260;51.422;6.786;2023-04-25T10:31:29;5.90;;;2.10;;
12493;SDS011;8260;51.422;6.786;2023-04-25T10:33:58;3.53;;;1.90;;
12493;SDS011;8260;51.422;6.786;2023-04-25T10:36:28;6.47;;;1.95;;
12493;SDS011;8260;51.422;6.786;2023-04-25T10:39:33;4.07;;;1.83;;
12493;SDS011;8260;51.422;6.786;2023-04-25T10:42:02;5.55;;;2.40;;
12493;SDS011;8260;51.422;6.786;2023-04-25T10:44:31;4.03;;;1.90;;
12493;SDS011;8260;51.422;6.786;2023-04-25T10:47:00;4.60;;;1.73;;
12493;SDS011;8260;51.422;6.786;2023-04-25T10:49:30;7.03;;;1.90;;
12493;SDS011;8260;51.422;6.786;2023-04-25T10:54:44;3.92;;;1.92;;
12493;SDS011;8260;51.422;6.786;2023-04-25T10:57:30;7.68;;;2.47;;
12493;SDS011;8260;51.422;6.786;2023-04-25T10:59:59;5.95;;;1.85;;
12493;SDS011;8260;51.422;6.786;2023-04-25T11:02:36;6.18;;;2.00;;
12493;SDS011;8260;51.422;6.786;2023-04-25T11:05:06;8.48;;;2.20;;
12493;SDS011;8260;51.422;6.786;2023-04-25T11:07:37;8.00;;;2.55;;
12493;SDS011;8260;51.422;6.786;2023-04-25T11:10:07;10.43;;;2.63;;
12493;SDS011;8260;51.422;6.786;2023-04-25T11:12:36;4.30;;;2.42;;
12493;SDS011;8260;51.422;6.786;2023-04-25T11:15:05;4.78;;;1.88;;
12493;SDS011;8260;51.422;6.786;2023-04-25T11:17:34;5.00;;;2.13;;
12493;SDS011;8260;51.422;6.786;2023-04-25T11:20:03;6.53;;;2.42;;
12493;SDS011;8260;51.422;6.786;2023-04-25T11:22:37;8.40;;;2.22;;
12493;SDS011;8260;51.422;6.786;2023-04-25T11:25:10;6.63;;;2.90;;
12493;SDS011;8260;51.422;6.786;2023-04-25T11:27:39;9.48;;;2.85;;
12493;SDS011;8260;51.422;6.786;2023-04-25T11:30:17;4.70;;;2.35;;
12493;SDS011;8260;51.422;6.786;2023-04-25T11:32:46;6.32;;;2.38;;
12493;SDS011;8260;51.422;6.786;2023-04-25T11:35:14;8.35;;;3.03;;
12493;SDS011;8260;51.422;6.786;2023-04-25T11:37:43;5.65;;;2.70;;
12493;SDS011;8260;51.422;6.786;2023-04-25T11:47:45;4.38;;;2.88;;
12493;SDS011;8260;51.422;6.786;2023-04-25T11:50:14;7.15;;;2.75;;
12493;SDS011;8260;51.422;6.786;2023-04-25T11:52:43;4.75;;;2.65;;
12493;SDS011;8260;51.422;6.786;2023-04-25T11:55:12;6.50;;;3.13;;
12493;SDS011;8260;51.422;6.786;2023-04-25T11:57:41;4.43;;;2.65;;
12493;SDS011;8260;51.422;6.786;2023-04-25T12:00:10;4.85;;;2.55;;
12493;SDS011;8260;51.422;6.786;2023-04-25T12:02:44;5.00;;;2.85;;
12493;SDS011;8260;51.422;6.786;2023-04-25T12:05:15;8.95;;;2.85;;
12493;SDS011;8260;51.422;6.786;2023-04-25T12:07:46;5.35;;;2.58;;
12493;SDS011;8260;51.422;6.786;2023-04-25T12:10:15;5.05;;;2.60;;
12493;SDS011;8260;51.422;6.786;2023-04-25T12:12:45;3.65;;;2.80;;
12493;SDS011;8260;51.422;6.786;2023-04-25T12:15:14;6.03;;;3.17;;
12493;SDS011;8260;51.422;6.786;2023-04-25T12:17:45;7.88;;;3.72;;
12493;SDS011;8260;51.422;6.786;2023-04-25T12:20:16;8.07;;;2.72;;
12493;SDS011;8260;51.422;6.786;2023-04-25T12:22:48;6.25;;;3.40;;
12493;SDS011;8260;51.422;6.786;2023-04-25T12:28:08;5.78;;;2.78;;
12493;SDS011;8260;51.422;6.786;2023-04-25T12:30:51;6.05;;;2.60;;
12493;SDS011;8260;51.422;6.786;2023-04-25T12:33:20;7.80;;;2.80;;
12493;SDS011;8260;51.422;6.786;2023-04-25T12:35:50;6.82;;;2.17;;
12493;SDS011;8260;51.422;6.786;2023-04-25T12:38:22;6.78;;;2.60;;
12493;SDS011;8260;51.422;6.786;2023-04-25T12:40:51;5.22;;;2.00;;
12493;SDS011;8260;51.422;6.786;2023-04-25T12:43:20;6.00;;;2.42;;
12493;SDS011;8260;51.422;6.786;2023-04-25T12:45:49;5.95;;;3.10;;
12493;SDS011;8260;51.422;6.786;2023-04-25T12:48:17;6.55;;;3.08;;
12493;SDS011;8260;51.422;6.786;2023-04-25T12:50:46;3.72;;;2.00;;
12493;SDS011;8260;51.422;6.786;2023-04-25T12:53:17;5.93;;;3.08;;
12493;SDS011;8260;51.422;6.786;2023-04-25T12:55:46;12.68;;;3.90;;
12493;SDS011;8260;51.422;6.786;2023-04-25T12:58:15;9.07;;;3.83;;
12493;SDS011;8260;51.422;6.786;2023-04-25T13:00:44;4.70;;;2.75;;
12493;SDS011;8260;51.422;6.786;2023-04-25T13:03:13;6.63;;;3.38;;
12493;SDS011;8260;51.422;6.786;2023-04-25T13:05:41;8.40;;;3.03;;
12493;SDS011;8260;51.422;6.786;2023-04-25T13:08:10;5.82;;;2.40;;
12493;SDS011;8260;51.422;6.786;2023-04-25T13:10:40;6.57;;;2.63;;
12493;SDS011;8260;51.422;6.786;2023-04-25T13:13:08;5.70;;;2.30;;
12493;SDS011;8260;51.422;6.786;2023-04-25T13:15:37;6.88;;;2.33;;
12493;SDS011;8260;51.422;6.786;2023-04-25T13:18:05;8.25;;;2.60;;
12493;SDS011;8260;51.422;6.786;2023-04-25T13:20:34;4.25;;;2.30;;
12493;SDS011;8260;51.422;6.786;2023-04-25T13:23:02;8.27;;;2.65;;
12493;SDS011;8260;51.422;6.786;2023-04-25T13:25:31;4.72;;;2.30;;
12493;SDS011;8260;51.422;6.786;2023-04-25T13:28:01;5.22;;;1.98;;
12493;SDS011;8260;51.422;6.786;2023-04-25T13:30:31;3.97;;;2.38;;
12493;SDS011;8260;51.422;6.786;2023-04-25T13:32:59;7.18;;;2.40;;
12493;SDS011;8260;51.422;6.786;2023-04-25T13:35:30;9.23;;;2.28;;
12493;SDS011;8260;51.422;6.786;2023-04-25T13:37:59;8.00;;;2.38;;
12493;SDS011;8260;51.422;6.786;2023-04-25T13:40:27;4.57;;;2.03;;
12493;SDS011;8260;51.422;6.786;2023-04-25T13:42:56;4.78;;;2.20;;
12493;SDS011;8260;51.422;6.786;2023-04-25T13:45:26;6.03;;;2.60;;
12493;SDS011;8260;51.422;6.786;2023-04-25T13:47:57;7.15;;;2.35;;
12493;SDS011;8260;51.422;6.786;2023-04-25T13:50:26;5.72;;;2.40;;
12493;SDS011;8260;51.422;6.786;2023-04-25T13:52:55;7.60;;;2.63;;
12493;SDS011;8260;51.422;6.786;2023-04-25T13:55:23;5.03;;;2.10;;
12493;SDS011;8260;51.422;6.786;2023-04-25T13:57:52;5.82;;;2.13;;
12493;SDS011;8260;51.422;6.786;2023-04-25T14:00:21;6.53;;;2.40;;
12493;SDS011;8260;51.422;6.786;2023-04-25T14:02:50;5.78;;;2.10;;
12493;SDS011;8260;51.422;6.786;2023-04-25T14:05:19;5.45;;;2.25;;
12493;SDS011;8260;51.422;6.786;2023-04-25T14:07:48;5.85;;;3.08;;
12493;SDS011;8260;51.422;6.786;2023-04-25T14:10:17;5.78;;;2.55;;
12493;SDS011;8260;51.422;6.786;2023-04-25T14:12:46;3.67;;;2.00;;
12493;SDS011;8260;51.422;6.786;2023-04-25T14:15:14;3.22;;;1.70;;
12493;SDS011;8260;51.422;6.786;2023-04-25T14:17:43;4.22;;;1.85;;
12493;SDS011;8260;51.422;6.786;2023-04-25T14:20:13;4.18;;;1.90;;
12493;SDS011;8260;51.422;6.786;2023-04-25T14:22:42;3.95;;;1.70;;
12493;SDS011;8260;51.422;6.786;2023-04-25T14:25:10;3.00;;;1.55;;
12493;SDS011;8260;51.422;6.786;2023-04-25T14:27:39;5.05;;;1.88;;
12493;SDS011;8260;51.422;6.786;2023-04-25T14:30:08;3.47;;;1.60;;
12493;SDS011;8260;51.422;6.786;2023-04-25T14:32:38;4.55;;;1.83;;
12493;SDS011;8260;51.422;6.786;2023-04-25T14:35:06;3.05;;;1.60;;
12493;SDS011;8260;51.422;6.786;2023-04-25T14:37:36;3.42;;;1.63;;
12493;SDS011;8260;51.422;6.786;2023-04-25T14:40:06;3.17;;;1.60;;
12493;SDS011;8260;51.422;6.786;2023-04-25T14:42:36;4.82;;;1.58;;
12493;SDS011;8260;51.422;6.786;2023-04-25T14:45:06;8.93;;;2.30;;
12493;SDS011;8260;51.422;6.786;2023-04-25T14:47:34;3.80;;;1.88;;
12493;SDS011;8260;51.422;6.786;2023-04-25T14:50:03;4.68;;;1.95;;
12493;SDS011;8260;51.422;6.786;2023-04-25T14:52:32;2.67;;;2.08;;
12493;SDS011;8260;51.422;6.786;2023-04-25T14:55:02;5.40;;;2.00;;
12493;SDS011;8260;51.422;6.786;2023-04-25T14:57:32;7.13;;;1.65;;
12493;SDS011;8260;51.422;6.786;2023-04-25T15:00:00;4.03;;;1.90;;
12493;SDS011;8260;51.422;6.786;2023-04-25T15:02:31;4.78;;;1.88;;
12493;SDS011;8260;51.422;6.786;2023-04-25T15:05:01;5.05;;;1.75;;
12493;SDS011;8260;51.422;6.786;2023-04-25T15:07:30;6.05;;;1.95;;
12493;SDS011;8260;51.422;6.786;2023-04-25T15:09:58;6.25;;;2.20;;
12493;SDS011;8260;51.422;6.786;2023-04-25T15:12:28;4.00;;;2.08;;
12493;SDS011;8260;51.422;6.786;2023-04-25T15:14:57;3.70;;;2.15;;
12493;SDS011;8260;51.422;6.786;2023-04-25T15:17:25;4.28;;;2.20;;
12493;SDS011;8260;51.422;6.786;2023-04-25T15:19:57;4.40;;;2.00;;